Terminal Aerodrome Forecast
Issued by NWS

Home | Current Version | Previous Version | Text Only | Print | Product List | Glossary Off
Versions: 1 2 3 4 5 6 7 8 9 10 11 12 13 14 15 16 17 18 19 20 21

000
FTUS42 KMHX 180251 AAA
TAFOAJ
TAF AMD
KOAJ 180251Z 1803/1824 VRB03KT P6SM OVC120
     FM180600 VRB03KT 5SM BR VCSH BKN030
     FM181200 03005KT P6SM VCSH BKN025
     FM181800 03005KT P6SM VCTS BKN040CB
      AMD LTD TO CLD VIS AND WIND=

USA.gov is the U.S. government's official web portal to all federal, state and local government web resources and services.